Baru Satu — H9AN — position and weather

sailwx.info

Track history (hours):
 
Tides and Currents Weather Stations Pressure Air Temp Water Temp Dewpoint Dewpoint Depression Visibility Wind Speed Wind Dir Waves Ship Positions

Baru Satu

Last reported at 2018-Jun-18 07:28 UTC. Time now 2018-Jun-18 11:24 UTC.
Position N 51°34' W 003°57'.

Length 137 m; draft 5.3 m.

Type: Cargo ship. MMSI: 371043000.

Date/timePositionNaut miles runAvg speedWind from/ knotsBaromVisibWave heightAir tempDewpointWater temp
2018-Jun-18 07:28N 51°34' W 003°57'2 4.0
2018-Jun-18 07:00N 51°33' W 003°56'0 0.1
2018-Jun-18 06:19N 51°33' W 003°56'0 0.1
2018-Jun-18 05:58N 51°33' W 003°56'0 0.0
2018-Jun-18 04:46N 51°33' W 003°56'33 1.4
2018-Jun-17 04:52N 51°08' W 004°31'512.8
2018-Jun-17 04:30N 51°05' W 004°37'612.3
2018-Jun-17 04:00N 51°01' W 004°45'611.7
2018-Jun-17 03:31N 50°58' W 004°52'611.0
2018-Jun-17 03:00N 50°54' W 004°58'510.6
2018-Jun-17 02:30N 50°51' W 005°05'510.6
2018-Jun-17 02:00N 50°47' W 005°10'510.4
2018-Jun-17 01:30N 50°43' W 005°17'510.2
2018-Jun-17 01:01N 50°40' W 005°23'510.2
2018-Jun-17 00:30N 50°37' W 005°29'510.1
2018-Jun-17 00:01N 50°34' W 005°36'510.0
2018-Jun-16 23:31N 50°31' W 005°42'510.1
2018-Jun-16 22:59N 50°27' W 005°48'5 9.9
2018-Jun-16 22:30N 50°24' W 005°54'5 8.9
2018-Jun-16 21:54N 50°19' W 005°55'4 9.3
2018-Jun-16 21:30N 50°16' W 005°55'40 7.1
2018-Jun-16 15:57N 49°51' W 005°07'1210.2
2018-Jun-16 14:44N 49°53' W 004°48'1310.9
2018-Jun-16 13:30N 49°57' W 004°28'811.1
2018-Jun-16 12:48N 49°59' W 004°16'411.1
2018-Jun-16 12:27N 49°59' W 004°10'1010.4
2018-Jun-16 11:32N 50°02' W 003°56'110.0
2018-Jun-16 11:28N 50°02' W 003°55'5 9.7
2018-Jun-16 11:00N 50°03' W 003°48'4 8.9
2018-Jun-16 10:30N 50°04' W 003°41'4 8.7
2018-Jun-16 10:00N 50°06' W 003°35'4 8.6
2018-Jun-16 09:30N 50°08' W 003°29'4 8.4
2018-Jun-16 09:00N 50°09' W 003°23'4 8.4
2018-Jun-16 08:30N 50°11' W 003°17'4 8.5
2018-Jun-16 08:00N 50°13' W 003°11'4 8.6
2018-Jun-16 07:30N 50°15' W 003°05'5 9.2
2018-Jun-16 07:00N 50°17' W 002°58'5 9.8
2018-Jun-16 06:30N 50°19' W 002°52'510.5
2018-Jun-16 06:00N 50°21' W 002°44'611.3
2018-Jun-16 05:30N 50°24' W 002°36'612.2
2018-Jun-16 05:00N 50°26' W 002°28'611.4
2018-Jun-16 04:27N 50°30' W 002°20'510.8
2018-Jun-16 03:59N 50°35' W 002°21'2 0.8
2018-Jun-16 01:25N 50°37' W 002°22'0 0.1
2018-Jun-16 00:43N 50°37' W 002°22'0 0.0
2018-Jun-16 00:25N 50°37' W 002°22'0 0.0
2018-Jun-15 23:55N 50°37' W 002°22'0 0.0
2018-Jun-15 23:28N 50°37' W 002°22'0 0.1
2018-Jun-15 22:49N 50°37' W 002°22'0 0.0
2018-Jun-15 22:28N 50°37' W 002°22'0 0.0
2018-Jun-15 21:55N 50°37' W 002°22'0 0.0
2018-Jun-15 21:28N 50°37' W 002°22'0 0.0
2018-Jun-15 20:58N 50°37' W 002°22'0 0.0
2018-Jun-15 20:22N 50°37' W 002°22'0 0.0
2018-Jun-15 19:58N 50°37' W 002°22'0 0.0
2018-Jun-15 19:29N 50°37' W 002°22'0 0.0
2018-Jun-15 19:00N 50°37' W 002°22'0 0.0
2018-Jun-15 18:18N 50°37' W 002°22'0 0.0
2018-Jun-15 18:00N 50°37' W 002°22'0 0.0
2018-Jun-15 17:12N 50°37' W 002°22'0 0.0
2018-Jun-15 16:57N 50°37' W 002°22'0 0.0
2018-Jun-15 16:30N 50°37' W 002°22'0 0.0
2018-Jun-15 16:00N 50°37' W 002°22'0 0.0
2018-Jun-15 14:39N 50°37' W 002°22'0 0.0
2018-Jun-15 14:30N 50°37' W 002°22'0 0.0
2018-Jun-15 13:54N 50°37' W 002°22'0 0.0
2018-Jun-15 13:30N 50°37' W 002°22'0 0.0
2018-Jun-15 13:00N 50°37' W 002°22'0 0.0
2018-Jun-15 12:30N 50°37' W 002°22'0 0.0
2018-Jun-15 12:00N 50°37' W 002°22'0 0.0
2018-Jun-15 11:24N 50°37' W 002°22'0 0.0
2018-Jun-15 11:00N 50°37' W 002°22'0 0.0
2018-Jun-15 10:30N 50°37' W 002°22'0 0.0
2018-Jun-15 10:00N 50°37' W 002°22'0 0.0
2018-Jun-15 09:30N 50°37' W 002°22'0 0.0
2018-Jun-15 08:54N 50°37' W 002°22'0 0.1
2018-Jun-15 08:06N 50°37' W 002°22'0 0.1
2018-Jun-15 07:54N 50°37' W 002°22'0 0.0
2018-Jun-15 07:30N 50°37' W 002°22'0 0.0
2018-Jun-15 06:51N 50°37' W 002°22'0 0.0
2018-Jun-15 06:18N 50°37' W 002°22'0 0.1
2018-Jun-15 05:48N 50°37' W 002°22'0 0.0
2018-Jun-15 05:27N 50°37' W 002°22'0 0.2
2018-Jun-15 05:00N 50°37' W 002°22'0 0.1
2018-Jun-15 03:09N 50°37' W 002°22'0 0.0
2018-Jun-15 02:51N 50°37' W 002°22'0 0.0
2018-Jun-15 02:00N 50°37' W 002°22'0 0.0
2018-Jun-14 23:27N 50°37' W 002°22'0 0.1
2018-Jun-14 22:51N 50°37' W 002°22'0 0.1
2018-Jun-14 22:18N 50°37' W 002°22'0 0.1
2018-Jun-14 22:00N 50°37' W 002°22'0 0.0
2018-Jun-14 19:45N 50°37' W 002°22'0 0.0
2018-Jun-14 19:30N 50°37' W 002°22'0 0.0
2018-Jun-14 18:06N 50°37' W 002°22'0 0.0
2018-Jun-14 17:48N 50°37' W 002°22'0 0.0
2018-Jun-14 17:27N 50°37' W 002°22'0 0.1
2018-Jun-14 17:00N 50°37' W 002°22'0 0.0
2018-Jun-14 16:30N 50°37' W 002°22'0 0.0
2018-Jun-14 16:00N 50°37' W 002°22'0 0.0
2018-Jun-14 15:30N 50°37' W 002°22'0 0.1
2018-Jun-14 14:54N 50°37' W 002°22'0 0.1
2018-Jun-14 14:30N 50°37' W 002°22'0 0.0
2018-Jun-14 14:00N 50°37' W 002°22'0 0.1
2018-Jun-14 13:30N 50°37' W 002°22'0 0.0
2018-Jun-14 13:00N 50°37' W 002°22'0 0.0
2018-Jun-14 12:30N 50°37' W 002°22'0 0.0
2018-Jun-14 11:57N 50°37' W 002°22'0 0.0
2018-Jun-14 11:27N 50°37' W 002°22'0 0.1
2018-Jun-14 10:57N 50°37' W 002°22'0 0.0
2018-Jun-14 10:30N 50°37' W 002°22'0 0.1
2018-Jun-14 10:00N 50°37' W 002°22'0 0.0
2018-Jun-14 09:30N 50°37' W 002°22'0 0.0
2018-Jun-14 07:33N 50°37' W 002°22'0 0.0
2018-Jun-14 07:27N 50°37' W 002°22'0 0.0
2018-Jun-14 06:57N 50°37' W 002°22'0 0.0
2018-Jun-14 06:00N 50°37' W 002°22'0 0.0
2018-Jun-14 05:15N 50°37' W 002°22'0 0.0
2018-Jun-14 04:57N 50°37' W 002°22'0 0.0
2018-Jun-14 03:27N 50°37' W 002°22'0 0.0
2018-Jun-14 02:03N 50°37' W 002°22'0 0.1
2018-Jun-14 01:57N 50°37' W 002°22'0 0.0
2018-Jun-14 01:30N 50°37' W 002°22'0 0.0
2018-Jun-14 00:48N 50°37' W 002°22'0 0.0
2018-Jun-14 00:18N 50°37' W 002°22'0 0.0
2018-Jun-14 00:00N 50°37' W 002°22'0 0.0
2018-Jun-13 23:09N 50°37' W 002°22'0 0.0
2018-Jun-13 22:48N 50°37' W 002°22'0 0.0
2018-Jun-13 22:30N 50°37' W 002°22'0 0.0
2018-Jun-13 22:00N 50°37' W 002°22'0 0.0
2018-Jun-13 21:24N 50°37' W 002°22'0 0.0
2018-Jun-13 21:00N 50°37' W 002°22'0 0.0
2018-Jun-13 20:18N 50°37' W 002°22'0 0.0
2018-Jun-13 20:00N 50°37' W 002°22'0 0.0
2018-Jun-13 18:42N 50°37' W 002°22'0 0.0
2018-Jun-13 18:30N 50°37' W 002°22'0 0.0
2018-Jun-13 17:54N 50°37' W 002°22'0 0.0
2018-Jun-13 17:30N 50°37' W 002°22'0 0.0
2018-Jun-13 16:57N 50°37' W 002°22'0 0.0
2018-Jun-13 16:27N 50°37' W 002°22'0 0.0
2018-Jun-13 15:42N 50°37' W 002°22'0 0.0
2018-Jun-13 13:27N 50°37' W 002°22'0 0.0
2018-Jun-13 12:57N 50°37' W 002°22'0 0.0
2018-Jun-13 12:06N 50°37' W 002°22'0 0.0
2018-Jun-13 09:12N 50°37' W 002°22'0 0.0
2018-Jun-13 09:00N 50°37' W 002°22'0 0.0
2018-Jun-13 08:30N 50°37' W 002°22'0 0.0
2018-Jun-13 08:00N 50°37' W 002°22'0 0.0
2018-Jun-13 06:54N 50°37' W 002°22'0 0.1
2018-Jun-13 06:30N 50°37' W 002°22'0 0.1
2018-Jun-13 06:00N 50°37' W 002°22'0 0.1
2018-Jun-13 05:30N 50°37' W 002°22'1 1.3
2018-Jun-13 05:00N 50°36' W 002°22'2 3.7
2018-Jun-13 04:30N 50°35' W 002°24'0 0.3
2018-Jun-13 03:04N 50°35' W 002°24'0 0.1
2018-Jun-13 02:58N 50°35' W 002°24'0 0.1
2018-Jun-13 02:28N 50°35' W 002°24'0 0.0
2018-Jun-13 01:58N 50°35' W 002°24'0 0.0
2018-Jun-13 01:28N 50°35' W 002°24'0 0.0
2018-Jun-13 00:58N 50°35' W 002°24'0 0.0
2018-Jun-13 00:19N 50°35' W 002°24'0 0.1
2018-Jun-12 23:58N 50°35' W 002°24'0 0.0
2018-Jun-12 23:28N 50°35' W 002°24'0 0.0
2018-Jun-12 22:55N 50°35' W 002°24'0 0.1
2018-Jun-12 22:28N 50°35' W 002°24'0 0.1
2018-Jun-12 21:59N 50°35' W 002°24'0 0.1
2018-Jun-12 21:30N 50°35' W 002°24'2 3.1
2018-Jun-12 21:00N 50°35' W 002°22'3 5.7
2018-Jun-12 20:30N 50°33' W 002°19'11 8.7
2018-Jun-12 19:12N 50°30' W 002°01'2 8.4
2018-Jun-12 18:57N 50°30' W 001°58'5 8.4
2018-Jun-12 18:19N 50°30' W 001°50'4 8.6
2018-Jun-12 17:54N 50°30' W 001°44'15 9.5
2018-Jun-12 16:16N 50°30' W 001°20'310.7
2018-Jun-12 15:59N 50°30' W 001°15'911.9
2018-Jun-12 15:15N 50°30' W 001°01'312.5
2018-Jun-12 15:00N 50°30' W 000°56'612.7
2018-Jun-12 14:30N 50°30' W 000°46'713.4
2018-Jun-12 14:00N 50°30' W 000°36'713.6
2018-Jun-12 13:30N 50°30' W 000°25'713.4
2018-Jun-12 12:59N 50°30' W 000°14'813.1
2018-Jun-12 12:22N 50°31' W 000°02'1212.8
2018-Jun-12 11:28N 50°34' E 000°16'612.3
2018-Jun-12 11:00N 50°35' E 000°25'611.9
2018-Jun-12 10:30N 50°37' E 000°34'611.4
2018-Jun-12 10:00N 50°41' E 000°41'511.0
2018-Jun-12 09:30N 50°44' E 000°48'510.9
2018-Jun-12 09:00N 50°47' E 000°54'611.0
2018-Jun-12 08:30N 50°51' E 001°01'811.4
2018-Jun-12 07:48N 50°56' E 001°11'311.9
2018-Jun-12 07:30N 50°58' E 001°15'612.9
2018-Jun-12 07:00N 51°02' E 001°23'714.3
2018-Jun-12 06:31N 51°06' E 001°32'714.7
2018-Jun-12 06:01N 51°11' E 001°41'713.9
2018-Jun-12 05:30N 51°17' E 001°48'713.6
2018-Jun-12 05:01N 51°23' E 001°52'612.6
2018-Jun-12 04:31N 51°28' E 001°57'612.2
2018-Jun-12 04:00N 51°33' E 002°04'611.7
2018-Jun-12 03:30N 51°37' E 002°10'611.2
2018-Jun-12 03:00N 51°42' E 002°16'611.0
2018-Jun-12 02:30N 51°46' E 002°22'510.6
2018-Jun-12 02:00N 51°50' E 002°28'510.0
2018-Jun-12 01:30N 51°53' E 002°33'5 9.5
2018-Jun-12 00:59N 51°58' E 002°36'510.0
2018-Jun-12 00:30N 52°03' E 002°36'5 9.7
2018-Jun-11 23:56N 52°08' E 002°37'410.2
2018-Jun-11 23:30N 52°13' E 002°37'510.5
2018-Jun-11 23:00N 52°18' E 002°37'511.0
2018-Jun-11 22:30N 52°23' E 002°37'611.3
2018-Jun-11 22:00N 52°29' E 002°37'611.8
2018-Jun-11 21:30N 52°35' E 002°37'612.3
2018-Jun-11 21:00N 52°41' E 002°36'612.5
2018-Jun-11 20:30N 52°47' E 002°36'612.7
2018-Jun-11 19:59N 52°54' E 002°37'612.9
2018-Jun-11 19:30N 52°60' E 002°37'612.8
2018-Jun-11 19:00N 53°06' E 002°38'612.9
2018-Jun-11 18:30N 53°12' E 002°42'1112.6
2018-Jun-11 17:38N 53°23' E 002°49'212.3
2018-Jun-11 17:30N 53°24' E 002°50'712.0
2018-Jun-11 16:54N 53°31' E 002°54'511.6
2018-Jun-11 16:30N 53°35' E 002°57'611.5
2018-Jun-11 16:00N 53°41' E 003°00'811.3
2018-Jun-11 15:20N 53°47' E 003°06'  
2018-Jun-09 03:47N 54°20' E 003°21'4 0.8
2018-Jun-08 22:59N 54°24' E 003°22'3 1.1
2018-Jun-08 20:24N 54°25' E 003°26'1610.1
2018-Jun-08 18:49N 54°14' E 003°45'510.0
2018-Jun-08 18:17N 54°11' E 003°52'2 8.0
2018-Jun-08 18:00N 54°09' E 003°54'1 1.3
2018-Jun-08 17:21N 54°09' E 003°53'0 1.4
2018-Jun-08 17:00N 54°10' E 003°53'1 1.4
2018-Jun-08 16:30N 54°10' E 003°52'2 1.4
2018-Jun-08 15:21N 54°11' E 003°49'3 0.7
2018-Jun-08 10:39N 54°12' E 003°45'0 0.4
2018-Jun-08 10:12N 54°13' E 003°45'0 0.4
2018-Jun-08 09:08N 54°13' E 003°45'  
Track history (hours):
 
Tides and Currents Weather Stations Pressure Air Temp Water Temp Dewpoint Dewpoint Depression Visibility Wind Speed Wind Dir Waves Ship Positions

Baru Satu

Last reported at 2018-Jun-18 07:28 UTC. Time now 2018-Jun-18 11:24 UTC.
Position N 51°34' W 003°57'.

Length 137 m; draft 5.3 m.

Type: Cargo ship. MMSI: 371043000.

Date/timePositionNaut miles runAvg speedWind from/ knotsBaromVisibWave heightAir tempDewpointWater temp
2018-Jun-18 07:28N 51°34' W 003°57'2 4.0
2018-Jun-18 07:00N 51°33' W 003°56'0 0.1
2018-Jun-18 06:19N 51°33' W 003°56'0 0.1
2018-Jun-18 05:58N 51°33' W 003°56'0 0.0
2018-Jun-18 04:46N 51°33' W 003°56'33 1.4
2018-Jun-17 04:52N 51°08' W 004°31'512.8
2018-Jun-17 04:30N 51°05' W 004°37'612.3
2018-Jun-17 04:00N 51°01' W 004°45'611.7
2018-Jun-17 03:31N 50°58' W 004°52'611.0
2018-Jun-17 03:00N 50°54' W 004°58'510.6
2018-Jun-17 02:30N 50°51' W 005°05'510.6
2018-Jun-17 02:00N 50°47' W 005°10'510.4
2018-Jun-17 01:30N 50°43' W 005°17'510.2
2018-Jun-17 01:01N 50°40' W 005°23'510.2
2018-Jun-17 00:30N 50°37' W 005°29'510.1
2018-Jun-17 00:01N 50°34' W 005°36'510.0
2018-Jun-16 23:31N 50°31' W 005°42'510.1
2018-Jun-16 22:59N 50°27' W 005°48'5 9.9
2018-Jun-16 22:30N 50°24' W 005°54'5 8.9
2018-Jun-16 21:54N 50°19' W 005°55'4 9.3
2018-Jun-16 21:30N 50°16' W 005°55'40 7.1
2018-Jun-16 15:57N 49°51' W 005°07'1210.2
2018-Jun-16 14:44N 49°53' W 004°48'1310.9
2018-Jun-16 13:30N 49°57' W 004°28'811.1
2018-Jun-16 12:48N 49°59' W 004°16'411.1
2018-Jun-16 12:27N 49°59' W 004°10'1010.4
2018-Jun-16 11:32N 50°02' W 003°56'110.0
2018-Jun-16 11:28N 50°02' W 003°55'5 9.7
2018-Jun-16 11:00N 50°03' W 003°48'4 8.9
2018-Jun-16 10:30N 50°04' W 003°41'4 8.7
2018-Jun-16 10:00N 50°06' W 003°35'4 8.6
2018-Jun-16 09:30N 50°08' W 003°29'4 8.4
2018-Jun-16 09:00N 50°09' W 003°23'4 8.4
2018-Jun-16 08:30N 50°11' W 003°17'4 8.5
2018-Jun-16 08:00N 50°13' W 003°11'4 8.6
2018-Jun-16 07:30N 50°15' W 003°05'5 9.2
2018-Jun-16 07:00N 50°17' W 002°58'5 9.8
2018-Jun-16 06:30N 50°19' W 002°52'510.5
2018-Jun-16 06:00N 50°21' W 002°44'611.3
2018-Jun-16 05:30N 50°24' W 002°36'612.2
2018-Jun-16 05:00N 50°26' W 002°28'611.4
2018-Jun-16 04:27N 50°30' W 002°20'510.8
2018-Jun-16 03:59N 50°35' W 002°21'2 0.8
2018-Jun-16 01:25N 50°37' W 002°22'0 0.1
2018-Jun-16 00:43N 50°37' W 002°22'0 0.0
2018-Jun-16 00:25N 50°37' W 002°22'0 0.0
2018-Jun-15 23:55N 50°37' W 002°22'0 0.0
2018-Jun-15 23:28N 50°37' W 002°22'0 0.1
2018-Jun-15 22:49N 50°37' W 002°22'0 0.0
2018-Jun-15 22:28N 50°37' W 002°22'0 0.0
2018-Jun-15 21:55N 50°37' W 002°22'0 0.0
2018-Jun-15 21:28N 50°37' W 002°22'0 0.0
2018-Jun-15 20:58N 50°37' W 002°22'0 0.0
2018-Jun-15 20:22N 50°37' W 002°22'0 0.0
2018-Jun-15 19:58N 50°37' W 002°22'0 0.0
2018-Jun-15 19:29N 50°37' W 002°22'0 0.0
2018-Jun-15 19:00N 50°37' W 002°22'0 0.0
2018-Jun-15 18:18N 50°37' W 002°22'0 0.0
2018-Jun-15 18:00N 50°37' W 002°22'0 0.0
2018-Jun-15 17:12N 50°37' W 002°22'0 0.0
2018-Jun-15 16:57N 50°37' W 002°22'0 0.0
2018-Jun-15 16:30N 50°37' W 002°22'0 0.0
2018-Jun-15 16:00N 50°37' W 002°22'0 0.0
2018-Jun-15 14:39N 50°37' W 002°22'0 0.0
2018-Jun-15 14:30N 50°37' W 002°22'0 0.0
2018-Jun-15 13:54N 50°37' W 002°22'0 0.0
2018-Jun-15 13:30N 50°37' W 002°22'0 0.0
2018-Jun-15 13:00N 50°37' W 002°22'0 0.0
2018-Jun-15 12:30N 50°37' W 002°22'0 0.0
2018-Jun-15 12:00N 50°37' W 002°22'0 0.0
2018-Jun-15 11:24N 50°37' W 002°22'0 0.0
2018-Jun-15 11:00N 50°37' W 002°22'0 0.0
2018-Jun-15 10:30N 50°37' W 002°22'0 0.0
2018-Jun-15 10:00N 50°37' W 002°22'0 0.0
2018-Jun-15 09:30N 50°37' W 002°22'0 0.0
2018-Jun-15 08:54N 50°37' W 002°22'0 0.1
2018-Jun-15 08:06N 50°37' W 002°22'0 0.1
2018-Jun-15 07:54N 50°37' W 002°22'0 0.0
2018-Jun-15 07:30N 50°37' W 002°22'0 0.0
2018-Jun-15 06:51N 50°37' W 002°22'0 0.0
2018-Jun-15 06:18N 50°37' W 002°22'0 0.1
2018-Jun-15 05:48N 50°37' W 002°22'0 0.0
2018-Jun-15 05:27N 50°37' W 002°22'0 0.2
2018-Jun-15 05:00N 50°37' W 002°22'0 0.1
2018-Jun-15 03:09N 50°37' W 002°22'0 0.0
2018-Jun-15 02:51N 50°37' W 002°22'0 0.0
2018-Jun-15 02:00N 50°37' W 002°22'0 0.0
2018-Jun-14 23:27N 50°37' W 002°22'0 0.1
2018-Jun-14 22:51N 50°37' W 002°22'0 0.1
2018-Jun-14 22:18N 50°37' W 002°22'0 0.1
2018-Jun-14 22:00N 50°37' W 002°22'0 0.0
2018-Jun-14 19:45N 50°37' W 002°22'0 0.0
2018-Jun-14 19:30N 50°37' W 002°22'0 0.0
2018-Jun-14 18:06N 50°37' W 002°22'0 0.0
2018-Jun-14 17:48N 50°37' W 002°22'0 0.0
2018-Jun-14 17:27N 50°37' W 002°22'0 0.1
2018-Jun-14 17:00N 50°37' W 002°22'0 0.0
2018-Jun-14 16:30N 50°37' W 002°22'0 0.0
2018-Jun-14 16:00N 50°37' W 002°22'0 0.0
2018-Jun-14 15:30N 50°37' W 002°22'0 0.1
2018-Jun-14 14:54N 50°37' W 002°22'0 0.1
2018-Jun-14 14:30N 50°37' W 002°22'0 0.0
2018-Jun-14 14:00N 50°37' W 002°22'0 0.1
2018-Jun-14 13:30N 50°37' W 002°22'0 0.0
2018-Jun-14 13:00N 50°37' W 002°22'0 0.0
2018-Jun-14 12:30N 50°37' W 002°22'0 0.0
2018-Jun-14 11:57N 50°37' W 002°22'0 0.0
2018-Jun-14 11:27N 50°37' W 002°22'0 0.1
2018-Jun-14 10:57N 50°37' W 002°22'0 0.0
2018-Jun-14 10:30N 50°37' W 002°22'0 0.1
2018-Jun-14 10:00N 50°37' W 002°22'0 0.0
2018-Jun-14 09:30N 50°37' W 002°22'0 0.0
2018-Jun-14 07:33N 50°37' W 002°22'0 0.0
2018-Jun-14 07:27N 50°37' W 002°22'0 0.0
2018-Jun-14 06:57N 50°37' W 002°22'0 0.0
2018-Jun-14 06:00N 50°37' W 002°22'0 0.0
2018-Jun-14 05:15N 50°37' W 002°22'0 0.0
2018-Jun-14 04:57N 50°37' W 002°22'0 0.0
2018-Jun-14 03:27N 50°37' W 002°22'0 0.0
2018-Jun-14 02:03N 50°37' W 002°22'0 0.1
2018-Jun-14 01:57N 50°37' W 002°22'0 0.0
2018-Jun-14 01:30N 50°37' W 002°22'0 0.0
2018-Jun-14 00:48N 50°37' W 002°22'0 0.0
2018-Jun-14 00:18N 50°37' W 002°22'0 0.0
2018-Jun-14 00:00N 50°37' W 002°22'0 0.0
2018-Jun-13 23:09N 50°37' W 002°22'0 0.0
2018-Jun-13 22:48N 50°37' W 002°22'0 0.0
2018-Jun-13 22:30N 50°37' W 002°22'0 0.0
2018-Jun-13 22:00N 50°37' W 002°22'0 0.0
2018-Jun-13 21:24N 50°37' W 002°22'0 0.0
2018-Jun-13 21:00N 50°37' W 002°22'0 0.0
2018-Jun-13 20:18N 50°37' W 002°22'0 0.0
2018-Jun-13 20:00N 50°37' W 002°22'0 0.0
2018-Jun-13 18:42N 50°37' W 002°22'0 0.0
2018-Jun-13 18:30N 50°37' W 002°22'0 0.0
2018-Jun-13 17:54N 50°37' W 002°22'0 0.0
2018-Jun-13 17:30N 50°37' W 002°22'0 0.0
2018-Jun-13 16:57N 50°37' W 002°22'0 0.0
2018-Jun-13 16:27N 50°37' W 002°22'0 0.0
2018-Jun-13 15:42N 50°37' W 002°22'0 0.0
2018-Jun-13 13:27N 50°37' W 002°22'0 0.0
2018-Jun-13 12:57N 50°37' W 002°22'0 0.0
2018-Jun-13 12:06N 50°37' W 002°22'0 0.0
2018-Jun-13 09:12N 50°37' W 002°22'0 0.0
2018-Jun-13 09:00N 50°37' W 002°22'0 0.0
2018-Jun-13 08:30N 50°37' W 002°22'0 0.0
2018-Jun-13 08:00N 50°37' W 002°22'0 0.0
2018-Jun-13 06:54N 50°37' W 002°22'0 0.1
2018-Jun-13 06:30N 50°37' W 002°22'0 0.1
2018-Jun-13 06:00N 50°37' W 002°22'0 0.1
2018-Jun-13 05:30N 50°37' W 002°22'1 1.3
2018-Jun-13 05:00N 50°36' W 002°22'2 3.7
2018-Jun-13 04:30N 50°35' W 002°24'0 0.3
2018-Jun-13 03:04N 50°35' W 002°24'0 0.1
2018-Jun-13 02:58N 50°35' W 002°24'0 0.1
2018-Jun-13 02:28N 50°35' W 002°24'0 0.0
2018-Jun-13 01:58N 50°35' W 002°24'0 0.0
2018-Jun-13 01:28N 50°35' W 002°24'0 0.0
2018-Jun-13 00:58N 50°35' W 002°24'0 0.0
2018-Jun-13 00:19N 50°35' W 002°24'0 0.1
2018-Jun-12 23:58N 50°35' W 002°24'0 0.0
2018-Jun-12 23:28N 50°35' W 002°24'0 0.0
2018-Jun-12 22:55N 50°35' W 002°24'0 0.1
2018-Jun-12 22:28N 50°35' W 002°24'0 0.1
2018-Jun-12 21:59N 50°35' W 002°24'0 0.1
2018-Jun-12 21:30N 50°35' W 002°24'2 3.1
2018-Jun-12 21:00N 50°35' W 002°22'3 5.7
2018-Jun-12 20:30N 50°33' W 002°19'11 8.7
2018-Jun-12 19:12N 50°30' W 002°01'2 8.4
2018-Jun-12 18:57N 50°30' W 001°58'5 8.4
2018-Jun-12 18:19N 50°30' W 001°50'4 8.6
2018-Jun-12 17:54N 50°30' W 001°44'15 9.5
2018-Jun-12 16:16N 50°30' W 001°20'310.7
2018-Jun-12 15:59N 50°30' W 001°15'911.9
2018-Jun-12 15:15N 50°30' W 001°01'312.5
2018-Jun-12 15:00N 50°30' W 000°56'612.7
2018-Jun-12 14:30N 50°30' W 000°46'713.4
2018-Jun-12 14:00N 50°30' W 000°36'713.6
2018-Jun-12 13:30N 50°30' W 000°25'713.4
2018-Jun-12 12:59N 50°30' W 000°14'813.1
2018-Jun-12 12:22N 50°31' W 000°02'1212.8
2018-Jun-12 11:28N 50°34' E 000°16'612.3
2018-Jun-12 11:00N 50°35' E 000°25'611.9
2018-Jun-12 10:30N 50°37' E 000°34'611.4
2018-Jun-12 10:00N 50°41' E 000°41'511.0
2018-Jun-12 09:30N 50°44' E 000°48'510.9
2018-Jun-12 09:00N 50°47' E 000°54'611.0
2018-Jun-12 08:30N 50°51' E 001°01'811.4
2018-Jun-12 07:48N 50°56' E 001°11'311.9
2018-Jun-12 07:30N 50°58' E 001°15'612.9
2018-Jun-12 07:00N 51°02' E 001°23'714.3
2018-Jun-12 06:31N 51°06' E 001°32'714.7
2018-Jun-12 06:01N 51°11' E 001°41'713.9
2018-Jun-12 05:30N 51°17' E 001°48'713.6
2018-Jun-12 05:01N 51°23' E 001°52'612.6
2018-Jun-12 04:31N 51°28' E 001°57'612.2
2018-Jun-12 04:00N 51°33' E 002°04'611.7
2018-Jun-12 03:30N 51°37' E 002°10'611.2
2018-Jun-12 03:00N 51°42' E 002°16'611.0
2018-Jun-12 02:30N 51°46' E 002°22'510.6
2018-Jun-12 02:00N 51°50' E 002°28'510.0
2018-Jun-12 01:30N 51°53' E 002°33'5 9.5
2018-Jun-12 00:59N 51°58' E 002°36'510.0
2018-Jun-12 00:30N 52°03' E 002°36'5 9.7
2018-Jun-11 23:56N 52°08' E 002°37'410.2
2018-Jun-11 23:30N 52°13' E 002°37'510.5
2018-Jun-11 23:00N 52°18' E 002°37'511.0
2018-Jun-11 22:30N 52°23' E 002°37'611.3
2018-Jun-11 22:00N 52°29' E 002°37'611.8
2018-Jun-11 21:30N 52°35' E 002°37'612.3
2018-Jun-11 21:00N 52°41' E 002°36'612.5
2018-Jun-11 20:30N 52°47' E 002°36'612.7
2018-Jun-11 19:59N 52°54' E 002°37'612.9
2018-Jun-11 19:30N 52°60' E 002°37'612.8
2018-Jun-11 19:00N 53°06' E 002°38'612.9
2018-Jun-11 18:30N 53°12' E 002°42'1112.6
2018-Jun-11 17:38N 53°23' E 002°49'212.3
2018-Jun-11 17:30N 53°24' E 002°50'712.0
2018-Jun-11 16:54N 53°31' E 002°54'511.6
2018-Jun-11 16:30N 53°35' E 002°57'611.5
2018-Jun-11 16:00N 53°41' E 003°00'811.3
2018-Jun-11 15:20N 53°47' E 003°06'  
2018-Jun-09 03:47N 54°20' E 003°21'4 0.8
2018-Jun-08 22:59N 54°24' E 003°22'3 1.1
2018-Jun-08 20:24N 54°25' E 003°26'1610.1
2018-Jun-08 18:49N 54°14' E 003°45'510.0
2018-Jun-08 18:17N 54°11' E 003°52'2 8.0
2018-Jun-08 18:00N 54°09' E 003°54'1 1.3
2018-Jun-08 17:21N 54°09' E 003°53'0 1.4
2018-Jun-08 17:00N 54°10' E 003°53'1 1.4
2018-Jun-08 16:30N 54°10' E 003°52'2 1.4
2018-Jun-08 15:21N 54°11' E 003°49'3 0.7
2018-Jun-08 10:39N 54°12' E 003°45'0 0.4
2018-Jun-08 10:12N 54°13' E 003°45'0 0.4
2018-Jun-08 09:08N 54°13' E 003°45'  

Dump ship's entire track history